Beach Hampton, New York
Current Conditions -  °F | °C
As of 10:56 AM on Monday 22 Dec 2014 (Local Time) from KGON Reporting Station
Overcast Overcast  
Wind Chill: 38°   Ceiling: 4600
Heat Index: 44°   Visibility: 7mi
Dew Point: 36°   Wind: 12mph
Humidity: 73%   Direction: 90°E
Pressure: 30.32"   Gusts: NA
Location:  40.9764°N, 72.1316°W
Report Text: KGON 221556Z 09010KT 7SM OVC046 07/02 A3032 RMK AO2 SLP268 T00670022
Loading
Personal Weather Stations






























Interactive Weather Map New forecast layout! Learn more

10-Day Weather Forecast

Advertisements
Track Severe Weather on mobile